Time;durP1;ratioP1;P1;durP2;ratioP2;P2;SDS_P1;SDS_P2;PMS_P1;PMS_P2;Temp;Humidity;BMP_temperature;BMP_pressure;BME280_temperature;BME280_humidity;BME280_pressure;Samples;Min_cycle;Max_cycle;Signal;HPM_P1;HPM_P2
2023/09/07 00:01:15;;;;;;;5.97;4.32;;;;;;;;;;5015939;28;20422;-63
2023/09/07 00:03:42;;;;;;;7.07;4.50;;;;;;;;;;5011227;28;20415;-63
2023/09/07 00:06:10;;;;;;;6.82;4.50;;;;;;;;;;5014937;28;20434;-63
2023/09/07 00:08:37;;;;;;;5.15;4.20;;;;;;;;;;5010772;28;20410;-63
2023/09/07 00:11:06;;;;;;;6.07;4.65;;;;;;;;;;5013820;28;20785;-63
2023/09/07 00:13:33;;;;;;;7.88;4.22;;;;;;;;;;5010581;28;20517;-63
2023/09/07 00:16:00;;;;;;;5.90;4.50;;;;;;;;;;5005963;28;20841;-63
2023/09/07 00:18:27;;;;;;;6.57;4.25;;;;;;;;;;5000788;28;20419;-63
2023/09/07 00:20:55;;;;;;;7.57;4.20;;;;;;;;;;4997348;28;20430;-63
2023/09/07 00:23:22;;;;;;;5.43;4.20;;;;;;;;;;4997249;28;20479;-64
2023/09/07 00:25:49;;;;;;;6.77;4.07;;;;;;;;;;5002643;28;20845;-63
2023/09/07 00:28:17;;;;;;;6.32;4.22;;;;;;;;;;5000612;28;20459;-62
2023/09/07 00:30:44;;;;;;;5.95;4.32;;;;;;;;;;5013865;28;20416;-63
2023/09/07 00:33:11;;;;;;;6.10;4.20;;;;;;;;;;5012048;28;20487;-63
2023/09/07 00:35:38;;;;;;;7.13;4.45;;;;;;;;;;5013376;28;20899;-63
2023/09/07 00:38:05;;;;;;;5.60;4.00;;;;;;;;;;5010135;28;20498;-63
2023/09/07 00:40:32;;;;;;;5.07;4.03;;;;;;;;;;5013673;28;20471;-62
2023/09/07 00:43:00;;;;;;;5.53;4.10;;;;;;;;;;5008645;28;20467;-64
2023/09/07 00:45:28;;;;;;;7.20;4.10;;;;;;;;;;5008257;28;20529;-63
2023/09/07 00:47:55;;;;;;;6.78;3.97;;;;;;;;;;5008498;28;20871;-63
2023/09/07 00:50:23;;;;;;;7.55;4.22;;;;;;;;;;5011950;28;20423;-62
2023/09/07 00:52:50;;;;;;;5.30;4.22;;;;;;;;;;5008593;28;20834;-63
2023/09/07 00:55:17;;;;;;;6.10;4.43;;;;;;;;;;5010252;28;20406;-63
2023/09/07 00:57:44;;;;;;;6.90;4.43;;;;;;;;;;5014517;28;20486;-63
2023/09/07 01:00:11;;;;;;;5.27;3.97;;;;;;;;;;5014692;28;20419;-63
2023/09/07 01:02:42;;;;;;;9.55;4.30;;;;;;;;;;5013677;28;20419;-63
2023/09/07 01:05:09;;;;;;;5.60;4.15;;;;;;;;;;5008324;28;20541;-63
2023/09/07 01:07:37;;;;;;;8.25;4.40;;;;;;;;;;5013580;28;20464;-63
2023/09/07 01:10:05;;;;;;;7.43;4.30;;;;;;;;;;5007246;28;20418;-63
2023/09/07 01:12:32;;;;;;;7.55;4.38;;;;;;;;;;5012541;28;20901;-63
2023/09/07 01:14:59;;;;;;;6.95;4.43;;;;;;;;;;5007269;28;20410;-63
2023/09/07 01:17:27;;;;;;;6.45;4.18;;;;;;;;;;5012339;28;20480;-63
2023/09/07 01:19:56;;;;;;;9.70;4.57;;;;;;;;;;5006835;28;20475;-62
2023/09/07 01:22:24;;;;;;;9.18;4.85;;;;;;;;;;5017762;28;20419;-63
2023/09/07 01:24:52;;;;;;;7.53;4.50;;;;;;;;;;5006223;28;20760;-62
2023/09/07 01:27:19;;;;;;;6.85;4.50;;;;;;;;;;5018504;28;20448;-63
2023/09/07 01:29:46;;;;;;;8.25;4.75;;;;;;;;;;5010070;28;20509;-63
2023/09/07 01:32:13;;;;;;;7.82;4.68;;;;;;;;;;5015958;28;20414;-64
2023/09/07 01:34:40;;;;;;;8.50;4.63;;;;;;;;;;5006448;28;20810;-63
2023/09/07 01:37:07;;;;;;;7.60;4.70;;;;;;;;;;5012423;28;20903;-63
2023/09/07 01:39:35;;;;;;;6.95;4.90;;;;;;;;;;5007003;28;20420;-63
2023/09/07 01:42:02;;;;;;;6.57;4.45;;;;;;;;;;5011203;28;20421;-63
2023/09/07 01:44:30;;;;;;;5.35;4.60;;;;;;;;;;5007265;28;20410;-63
2023/09/07 01:46:57;;;;;;;9.48;4.68;;;;;;;;;;5010286;28;20439;-62
2023/09/07 01:49:23;;;;;;;8.05;4.70;;;;;;;;;;5008744;28;21746;-62
2023/09/07 01:51:53;;;;;;;10.97;4.70;;;;;;;;;;5013791;28;20417;-63
2023/09/07 01:54:20;;;;;;;6.35;4.40;;;;;;;;;;5007123;28;20503;-63
2023/09/07 01:56:48;;;;;;;8.80;4.40;;;;;;;;;;5014001;28;20448;-63
2023/09/07 01:59:15;;;;;;;5.97;4.57;;;;;;;;;;5005442;28;20484;-63
2023/09/07 02:01:42;;;;;;;9.02;4.60;;;;;;;;;;5013889;28;20470;-63
2023/09/07 02:04:09;;;;;;;7.00;4.70;;;;;;;;;;5003071;28;20970;-63
2023/09/07 02:06:36;;;;;;;5.78;4.53;;;;;;;;;;5013925;28;20436;-63
2023/09/07 02:09:04;;;;;;;5.50;4.78;;;;;;;;;;5002113;28;20446;-63
2023/09/07 02:11:31;;;;;;;7.00;4.88;;;;;;;;;;5008692;28;20502;-63
2023/09/07 02:13:59;;;;;;;7.30;4.80;;;;;;;;;;5008538;28;20478;-63
2023/09/07 02:16:26;;;;;;;10.15;4.97;;;;;;;;;;5012494;28;20430;-63
2023/09/07 02:19:00;;;;;;;9.93;5.25;;;;;;;;;;5008334;28;20867;-63
2023/09/07 02:21:27;;;;;;;9.38;5.10;;;;;;;;;;5012375;28;20411;-63
2023/09/07 02:23:55;;;;;;;5.75;4.60;;;;;;;;;;5007919;28;20421;-63
2023/09/07 02:26:21;;;;;;;6.63;5.03;;;;;;;;;;5011665;28;20797;-63
2023/09/07 02:28:48;;;;;;;9.95;5.53;;;;;;;;;;5007256;28;20502;-63
2023/09/07 02:31:17;;;;;;;8.70;5.10;;;;;;;;;;5009385;28;20418;-63
2023/09/07 02:33:44;;;;;;;7.18;4.78;;;;;;;;;;5006466;28;20426;-63
2023/09/07 02:36:11;;;;;;;8.60;5.30;;;;;;;;;;5008674;28;20486;-63
2023/09/07 02:38:38;;;;;;;8.85;5.00;;;;;;;;;;5013004;28;20829;-63
2023/09/07 02:41:05;;;;;;;6.90;5.10;;;;;;;;;;5007279;28;20419;-63
2023/09/07 02:43:32;;;;;;;6.95;5.30;;;;;;;;;;5011650;28;20411;-63
2023/09/07 02:45:59;;;;;;;7.67;4.67;;;;;;;;;;5007486;28;20441;-63
2023/09/07 02:48:28;;;;;;;8.77;5.38;;;;;;;;;;5011809;28;20489;-63
2023/09/07 02:50:58;;;;;;;6.20;5.07;;;;;;;;;;5007315;28;20831;-63
2023/09/07 02:53:25;;;;;;;8.48;5.10;;;;;;;;;;5010635;28;20894;-63
2023/09/07 02:55:52;;;;;;;6.85;4.60;;;;;;;;;;5005146;28;20467;-63
2023/09/07 02:58:19;;;;;;;6.38;5.07;;;;;;;;;;5008561;28;20955;-63
2023/09/07 03:00:47;;;;;;;6.00;4.70;;;;;;;;;;5012719;28;20413;-63
2023/09/07 03:03:13;;;;;;;8.60;5.00;;;;;;;;;;5012440;28;20421;-63
2023/09/07 03:05:42;;;;;;;7.60;5.32;;;;;;;;;;5006803;28;20491;-63
2023/09/07 03:08:09;;;;;;;7.40;4.80;;;;;;;;;;5011713;28;20416;-63
2023/09/07 03:10:37;;;;;;;6.13;4.43;;;;;;;;;;5007777;28;20475;-63
2023/09/07 03:13:05;;;;;;;7.75;4.50;;;;;;;;;;5010259;28;20782;-64
2023/09/07 03:15:32;;;;;;;6.72;4.50;;;;;;;;;;5003938;28;20416;-63
2023/09/07 03:17:59;;;;;;;8.88;4.57;;;;;;;;;;5010390;28;20487;-63
2023/09/07 03:20:26;;;;;;;5.60;4.65;;;;;;;;;;5005959;28;20429;-63
2023/09/07 03:22:56;;;;;;;6.68;4.90;;;;;;;;;;5010515;28;20467;-63
2023/09/07 03:25:23;;;;;;;8.27;5.00;;;;;;;;;;5004963;28;20418;-63
2023/09/07 03:27:50;;;;;;;5.60;4.97;;;;;;;;;;5014415;28;20462;-63
2023/09/07 03:30:17;;;;;;;6.18;4.60;;;;;;;;;;5015098;28;20416;-63
2023/09/07 03:32:44;;;;;;;6.25;4.75;;;;;;;;;;5018597;28;20918;-62
2023/09/07 03:35:11;;;;;;;6.97;4.87;;;;;;;;;;5007219;28;20505;-63
2023/09/07 03:37:38;;;;;;;8.60;5.13;;;;;;;;;;5018663;28;20502;-62
2023/09/07 03:40:08;;;;;;;7.30;4.75;;;;;;;;;;5006022;28;20494;-63
2023/09/07 03:42:35;;;;;;;6.00;4.77;;;;;;;;;;5011388;28;20491;-63
2023/09/07 03:45:03;;;;;;;6.45;4.97;;;;;;;;;;5005259;28;20416;-62
2023/09/07 03:47:30;;;;;;;7.63;4.82;;;;;;;;;;5017153;28;20434;-63
2023/09/07 03:49:58;;;;;;;9.10;5.00;;;;;;;;;;5005510;28;20505;-63
2023/09/07 03:52:26;;;;;;;7.35;5.38;;;;;;;;;;5016384;28;20932;-63
2023/09/07 03:54:55;;;;;;;8.13;5.47;;;;;;;;;;5011568;28;20422;-63
2023/09/07 03:57:23;;;;;;;6.40;5.30;;;;;;;;;;5015545;28;20563;-63
2023/09/07 03:59:50;;;;;;;5.90;4.90;;;;;;;;;;5011188;28;20808;-62
2023/09/07 04:02:18;;;;;;;7.53;5.55;;;;;;;;;;5014443;28;20421;-63
2023/09/07 04:04:49;;;;;;;8.10;5.30;;;;;;;;;;5010394;28;20553;-64
2023/09/07 04:07:16;;;;;;;8.02;5.05;;;;;;;;;;5013277;28;20825;-64
2023/09/07 04:09:43;;;;;;;7.60;5.70;;;;;;;;;;5009686;28;20454;-63
2023/09/07 04:12:10;;;;;;;7.57;5.28;;;;;;;;;;5011800;28;20429;-63
2023/09/07 04:14:39;;;;;;;10.52;5.65;;;;;;;;;;5009418;28;20824;-63
2023/09/07 04:17:06;;;;;;;7.38;5.82;;;;;;;;;;5011182;28;20445;-64
2023/09/07 04:19:33;;;;;;;9.32;5.85;;;;;;;;;;5015499;28;20415;-63
2023/09/07 04:22:00;;;;;;;12.82;6.25;;;;;;;;;;5010971;28;20907;-64
2023/09/07 04:24:28;;;;;;;9.25;6.07;;;;;;;;;;5014551;28;20422;-64
2023/09/07 04:26:55;;;;;;;8.20;6.25;;;;;;;;;;5009025;28;20428;-64
2023/09/07 04:29:22;;;;;;;8.23;5.90;;;;;;;;;;5012383;28;20418;-64
2023/09/07 04:31:50;;;;;;;7.38;6.10;;;;;;;;;;5011292;28;20887;-64
2023/09/07 04:34:17;;;;;;;12.07;6.53;;;;;;;;;;5010706;28;20544;-64
2023/09/07 04:36:44;;;;;;;8.88;6.07;;;;;;;;;;5011792;28;20413;-64
2023/09/07 04:39:14;;;;;;;9.57;6.50;;;;;;;;;;5007669;28;20420;-64
2023/09/07 04:41:41;;;;;;;9.82;6.45;;;;;;;;;;5011702;28;20435;-64
2023/09/07 04:44:08;;;;;;;11.50;6.20;;;;;;;;;;5007288;28;20416;-65
2023/09/07 04:46:35;;;;;;;9.00;5.88;;;;;;;;;;5007509;28;20490;-64
2023/09/07 04:49:03;;;;;;;12.20;6.37;;;;;;;;;;5013951;28;20417;-64
2023/09/07 04:51:30;;;;;;;9.50;6.10;;;;;;;;;;5011060;28;20473;-65
2023/09/07 04:53:57;;;;;;;9.50;6.20;;;;;;;;;;5014102;28;20957;-64
2023/09/07 04:56:25;;;;;;;10.00;6.10;;;;;;;;;;5011542;28;20414;-64
2023/09/07 04:58:52;;;;;;;10.18;6.32;;;;;;;;;;5014647;28;20421;-65
2023/09/07 05:01:19;;;;;;;9.63;6.50;;;;;;;;;;5006563;28;20415;-64
2023/09/07 05:03:46;;;;;;;9.50;6.30;;;;;;;;;;5009914;28;20415;-64
2023/09/07 05:06:14;;;;;;;12.77;6.40;;;;;;;;;;5006486;28;20461;-64
2023/09/07 05:08:41;;;;;;;8.32;6.20;;;;;;;;;;5012581;28;20419;-64
2023/09/07 05:11:08;;;;;;;9.25;6.40;;;;;;;;;;5005837;28;20469;-65
2023/09/07 05:13:35;;;;;;;10.05;6.65;;;;;;;;;;5011210;28;20473;-64
2023/09/07 05:16:04;;;;;;;8.13;6.20;;;;;;;;;;5005826;28;20418;-65
2023/09/07 05:18:31;;;;;;;9.93;6.57;;;;;;;;;;5017273;28;20449;-64
2023/09/07 05:20:58;;;;;;;10.38;6.50;;;;;;;;;;5005669;28;20421;-64
2023/09/07 05:23:27;;;;;;;7.80;6.07;;;;;;;;;;5015922;28;20418;-65
2023/09/07 05:25:55;;;;;;;7.28;5.85;;;;;;;;;;5005504;28;20961;-65
2023/09/07 05:28:23;;;;;;;9.52;6.50;;;;;;;;;;5014682;28;20406;-64
2023/09/07 05:30:50;;;;;;;8.45;6.10;;;;;;;;;;5011088;28;20826;-64
2023/09/07 05:33:18;;;;;;;9.17;6.23;;;;;;;;;;5012796;28;20471;-64
2023/09/07 05:35:46;;;;;;;9.52;6.20;;;;;;;;;;5010047;28;20437;-64
2023/09/07 05:38:13;;;;;;;8.05;6.30;;;;;;;;;;5012696;28;20408;-65
2023/09/07 05:40:42;;;;;;;10.57;5.97;;;;;;;;;;5009883;28;20473;-64
2023/09/07 05:43:09;;;;;;;8.13;5.25;;;;;;;;;;5011763;28;20471;-64
2023/09/07 05:45:37;;;;;;;8.13;5.93;;;;;;;;;;5007911;28;20426;-65
2023/09/07 05:48:04;;;;;;;6.68;5.20;;;;;;;;;;5011877;28;20438;-65
2023/09/07 05:50:31;;;;;;;8.35;5.28;;;;;;;;;;5008476;28;20486;-65
2023/09/07 05:52:58;;;;;;;7.63;5.35;;;;;;;;;;5011761;28;20417;-65
2023/09/07 05:55:25;;;;;;;6.03;4.90;;;;;;;;;;5005959;28;20938;-64
2023/09/07 05:57:55;;;;;;;8.70;5.00;;;;;;;;;;5012166;28;20408;-65
2023/09/07 06:00:23;;;;;;;7.28;4.70;;;;;;;;;;5011269;28;20467;-65
2023/09/07 06:02:50;;;;;;;6.50;5.00;;;;;;;;;;5012159;28;20511;-65
2023/09/07 06:05:17;;;;;;;7.20;5.35;;;;;;;;;;4999233;28;20508;-65
2023/09/07 06:07:45;;;;;;;8.63;5.38;;;;;;;;;;4999892;28;20494;-65
2023/09/07 06:10:12;;;;;;;8.18;5.30;;;;;;;;;;5003807;28;20417;-66
2023/09/07 06:12:41;;;;;;;7.20;5.40;;;;;;;;;;5005943;28;20425;-65
2023/09/07 06:15:10;;;;;;;5.90;5.25;;;;;;;;;;5007243;28;20416;-65
2023/09/07 06:17:37;;;;;;;8.25;5.40;;;;;;;;;;5007280;28;20417;-66
2023/09/07 06:20:05;;;;;;;9.55;5.50;;;;;;;;;;5007136;28;20417;-65
2023/09/07 06:22:32;;;;;;;6.25;5.10;;;;;;;;;;5010259;28;20427;-65
2023/09/07 06:24:59;;;;;;;5.50;4.68;;;;;;;;;;5006663;28;20427;-66
2023/09/07 06:27:26;;;;;;;5.97;5.00;;;;;;;;;;5010132;28;20431;-66
2023/09/07 06:29:53;;;;;;;6.88;4.63;;;;;;;;;;5012773;28;20429;-66
2023/09/07 06:32:22;;;;;;;7.05;4.50;;;;;;;;;;5007460;28;20475;-65
2023/09/07 06:34:49;;;;;;;8.98;5.00;;;;;;;;;;5012330;28;20441;-66
2023/09/07 06:37:16;;;;;;;7.03;4.78;;;;;;;;;;5006564;28;20837;-66
2023/09/07 06:39:43;;;;;;;7.28;4.65;;;;;;;;;;5011770;28;20415;-66
2023/09/07 06:42:11;;;;;;;8.00;4.90;;;;;;;;;;5000516;28;20428;-66
2023/09/07 06:44:38;;;;;;;5.18;4.55;;;;;;;;;;5001588;28;20421;-66
2023/09/07 06:47:05;;;;;;;6.53;4.60;;;;;;;;;;5007184;28;20432;-66
2023/09/07 06:49:33;;;;;;;5.57;4.30;;;;;;;;;;4996576;28;20423;-66
2023/09/07 06:52:00;;;;;;;5.38;4.60;;;;;;;;;;4999269;28;20420;-66
2023/09/07 06:54:30;;;;;;;7.00;4.70;;;;;;;;;;5011308;28;20426;-69
2023/09/07 06:56:57;;;;;;;7.45;5.30;;;;;;;;;;5006309;28;20437;-66
2023/09/07 06:59:24;;;;;;;7.63;5.15;;;;;;;;;;5013400;28;20418;-68
2023/09/07 07:01:51;;;;;;;7.07;5.25;;;;;;;;;;5001178;28;20474;-67
2023/09/07 07:04:18;;;;;;;9.05;5.65;;;;;;;;;;5002021;28;20412;-68
2023/09/07 07:06:46;;;;;;;8.30;5.32;;;;;;;;;;4999598;28;20424;-67
2023/09/07 07:09:13;;;;;;;8.07;5.00;;;;;;;;;;5001942;28;20426;-66
2023/09/07 07:11:42;;;;;;;8.15;5.13;;;;;;;;;;5008254;28;20420;-66
2023/09/07 07:14:11;;;;;;;7.80;5.05;;;;;;;;;;5009785;28;20420;-66
2023/09/07 07:16:38;;;;;;;7.63;5.30;;;;;;;;;;5009894;28;20422;-66
2023/09/07 07:19:05;;;;;;;10.05;5.82;;;;;;;;;;5010520;28;20462;-65
2023/09/07 07:21:32;;;;;;;8.02;5.13;;;;;;;;;;5004617;28;20417;-66
2023/09/07 07:24:00;;;;;;;7.63;4.93;;;;;;;;;;5006371;28;20417;-66
2023/09/07 07:26:27;;;;;;;6.15;4.90;;;;;;;;;;5004624;28;20481;-66
2023/09/07 07:28:54;;;;;;;6.03;4.25;;;;;;;;;;5012057;28;20429;-66
2023/09/07 07:31:21;;;;;;;6.75;4.20;;;;;;;;;;5002307;28;20417;-66
2023/09/07 07:33:49;;;;;;;7.13;4.22;;;;;;;;;;5012163;28;20413;-66
2023/09/07 07:36:16;;;;;;;6.65;4.35;;;;;;;;;;5001091;28;20414;-66
2023/09/07 07:38:43;;;;;;;4.97;4.15;;;;;;;;;;5007420;28;20415;-67
2023/09/07 07:41:11;;;;;;;4.85;4.35;;;;;;;;;;5000100;28;20414;-67
2023/09/07 07:43:38;;;;;;;5.18;4.03;;;;;;;;;;5015645;28;20420;-67
2023/09/07 07:46:05;;;;;;;5.85;4.38;;;;;;;;;;5002775;28;20945;-67
2023/09/07 07:48:35;;;;;;;7.90;4.47;;;;;;;;;;5009183;28;21018;-67
2023/09/07 07:51:04;;;;;;;6.95;4.40;;;;;;;;;;5017385;28;20448;-67
2023/09/07 07:53:31;;;;;;;5.93;4.03;;;;;;;;;;5020252;28;20999;-67
2023/09/07 07:55:58;;;;;;;6.57;4.30;;;;;;;;;;5005491;28;20501;-67
2023/09/07 07:58:27;;;;;;;6.57;3.90;;;;;;;;;;5009710;28;20891;-67
2023/09/07 08:00:57;;;;;;;6.10;4.22;;;;;;;;;;5011546;28;20422;-67
2023/09/07 08:03:24;;;;;;;6.93;4.10;;;;;;;;;;5004639;28;20516;-67
2023/09/07 08:05:51;;;;;;;7.65;4.25;;;;;;;;;;5002966;28;20425;-67
2023/09/07 08:08:19;;;;;;;5.95;4.30;;;;;;;;;;5008990;28;21097;-67
2023/09/07 08:10:46;;;;;;;8.07;4.38;;;;;;;;;;5008390;28;20417;-67
2023/09/07 08:13:13;;;;;;;9.67;4.53;;;;;;;;;;5007241;28;20734;-67
2023/09/07 08:15:42;;;;;;;13.63;4.53;;;;;;;;;;5017433;28;20423;-68
2023/09/07 08:18:09;;;;;;;9.73;4.55;;;;;;;;;;5008272;28;20825;-66
2023/09/07 08:20:38;;;;;;;8.90;4.47;;;;;;;;;;5007670;28;20844;-66
2023/09/07 08:23:08;;;;;;;10.53;4.53;;;;;;;;;;5008720;28;20495;-66
2023/09/07 08:25:35;;;;;;;4.90;4.05;;;;;;;;;;5012686;28;20477;-66
2023/09/07 08:28:05;;;;;;;5.13;4.25;;;;;;;;;;5007934;28;20429;-65
2023/09/07 08:30:32;;;;;;;5.63;4.30;;;;;;;;;;5011539;28;20471;-66
2023/09/07 08:33:02;;;;;;;5.88;4.15;;;;;;;;;;5004689;28;20413;-66
2023/09/07 08:35:30;;;;;;;7.70;4.10;;;;;;;;;;5012440;28;20423;-68
2023/09/07 08:37:58;;;;;;;5.43;4.60;;;;;;;;;;5004776;28;20474;-69
2023/09/07 08:40:27;;;;;;;6.57;4.00;;;;;;;;;;5016813;28;20421;-66
2023/09/07 08:42:54;;;;;;;9.50;4.10;;;;;;;;;;5009930;28;20581;-66
2023/09/07 08:45:23;;;;;;;6.85;4.15;;;;;;;;;;4998225;28;20485;-66
2023/09/07 08:47:50;;;;;;;4.22;3.58;;;;;;;;;;5008077;28;20433;-65
2023/09/07 08:50:19;;;;;;;5.40;3.88;;;;;;;;;;5005958;28;20424;-66
2023/09/07 08:52:46;;;;;;;6.57;4.37;;;;;;;;;;5008056;28;20902;-65
2023/09/07 08:55:14;;;;;;;5.18;3.78;;;;;;;;;;5016401;28;20421;-66
2023/09/07 08:57:41;;;;;;;5.35;4.20;;;;;;;;;;5006561;28;20435;-66
2023/09/07 09:00:14;;;;;;;8.57;4.20;;;;;;;;;;5001492;28;20801;-66
2023/09/07 09:02:41;;;;;;;7.57;4.17;;;;;;;;;;5005233;28;20827;-66
2023/09/07 09:05:10;;;;;;;5.22;3.72;;;;;;;;;;5000609;28;20484;-66
2023/09/07 09:07:38;;;;;;;6.53;4.07;;;;;;;;;;5005110;28;20443;-66
2023/09/07 09:10:06;;;;;;;5.63;4.07;;;;;;;;;;5002061;28;20813;-65
2023/09/07 09:12:33;;;;;;;6.28;4.10;;;;;;;;;;5008062;28;20422;-65
2023/09/07 09:15:00;;;;;;;5.10;4.00;;;;;;;;;;5006264;28;20463;-66
2023/09/07 09:17:27;;;;;;;5.03;4.50;;;;;;;;;;4994694;28;20782;-66
2023/09/07 09:19:54;;;;;;;6.57;4.28;;;;;;;;;;5006970;28;20513;-66
2023/09/07 09:22:21;;;;;;;8.57;4.22;;;;;;;;;;4993775;28;20414;-66
2023/09/07 09:24:50;;;;;;;5.43;4.03;;;;;;;;;;5009151;28;20460;-65
2023/09/07 09:27:18;;;;;;;6.30;4.10;;;;;;;;;;5006657;28;20424;-65
2023/09/07 09:29:45;;;;;;;6.63;4.35;;;;;;;;;;5001372;28;20473;-65
2023/09/07 09:32:15;;;;;;;5.72;3.92;;;;;;;;;;4999277;28;20796;-66
2023/09/07 09:34:45;;;;;;;6.47;4.75;;;;;;;;;;5006637;28;20501;-66
2023/09/07 09:37:16;;;;;;;6.28;4.22;;;;;;;;;;4995213;28;20421;-66
2023/09/07 09:39:43;;;;;;;6.35;5.30;;;;;;;;;;4998601;28;20448;-66
2023/09/07 09:42:12;;;;;;;7.35;4.65;;;;;;;;;;5006451;28;20811;-66
2023/09/07 09:44:39;;;;;;;6.88;4.43;;;;;;;;;;4996229;28;20416;-65
2023/09/07 09:47:07;;;;;;;6.15;4.18;;;;;;;;;;5005442;28;20879;-66
2023/09/07 09:49:35;;;;;;;10.25;4.78;;;;;;;;;;4998118;28;20496;-66
2023/09/07 09:52:02;;;;;;;6.88;4.30;;;;;;;;;;5007427;28;20480;-66
2023/09/07 09:54:29;;;;;;;8.77;4.70;;;;;;;;;;4996990;28;20423;-65
2023/09/07 09:56:56;;;;;;;7.85;4.75;;;;;;;;;;5007229;28;20417;-66
2023/09/07 09:59:24;;;;;;;6.53;4.70;;;;;;;;;;5000262;28;20418;-66
2023/09/07 10:01:54;;;;;;;7.37;4.47;;;;;;;;;;5011840;28;20467;-66
2023/09/07 10:04:22;;;;;;;8.88;4.47;;;;;;;;;;5005841;28;20415;-65
2023/09/07 10:06:55;;;;;;;8.60;4.65;;;;;;;;;;5009561;28;20832;-66
2023/09/07 10:09:23;;;;;;;11.23;6.57;;;;;;;;;;5011617;28;20430;-66
2023/09/07 10:11:53;;;;;;;9.45;6.50;;;;;;;;;;5011551;28;20805;-66
2023/09/07 10:14:20;;;;;;;7.05;5.07;;;;;;;;;;5004359;28;20419;-66
2023/09/07 10:16:49;;;;;;;6.90;4.30;;;;;;;;;;5016503;28;20419;-65
2023/09/07 10:19:17;;;;;;;7.43;5.00;;;;;;;;;;5003841;28;20411;-65
2023/09/07 10:21:44;;;;;;;7.90;5.00;;;;;;;;;;5016290;28;20419;-65
2023/09/07 10:24:11;;;;;;;8.80;5.15;;;;;;;;;;5003718;28;20423;-66
2023/09/07 10:26:38;;;;;;;7.43;4.50;;;;;;;;;;5019402;28;20530;-66
2023/09/07 10:29:05;;;;;;;6.85;4.55;;;;;;;;;;5003866;28;20494;-66
2023/09/07 10:31:32;;;;;;;6.22;4.28;;;;;;;;;;5013756;28;20501;-66
2023/09/07 10:34:12;;;;;;;6.07;4.57;;;;;;;;;;5003227;28;20507;-65
2023/09/07 10:36:39;;;;;;;6.57;4.67;;;;;;;;;;5017942;28;20785;-65
2023/09/07 10:39:06;;;;;;;7.88;4.30;;;;;;;;;;5004501;28;20404;-65
2023/09/07 10:41:41;;;;;;;5.63;4.38;;;;;;;;;;5012995;28;20425;-66
2023/09/07 10:44:10;;;;;;;7.93;5.00;;;;;;;;;;5008164;28;20418;-66
2023/09/07 10:46:38;;;;;;;15.07;5.00;;;;;;;;;;5011433;28;20497;-66
2023/09/07 10:49:08;;;;;;;8.05;4.60;;;;;;;;;;5007440;28;20469;-66
2023/09/07 10:51:41;;;;;;;7.25;4.53;;;;;;;;;;5010308;28;20465;-66
2023/09/07 10:54:15;;;;;;;8.90;4.60;;;;;;;;;;5004693;28;20443;-66
2023/09/07 10:56:42;;;;;;;6.15;4.63;;;;;;;;;;4999583;28;20422;-67
2023/09/07 10:59:09;;;;;;;6.40;4.57;;;;;;;;;;5005492;28;20467;-67
2023/09/07 11:01:36;;;;;;;6.38;4.50;;;;;;;;;;5009229;28;20529;-66
2023/09/07 11:04:04;;;;;;;7.43;4.25;;;;;;;;;;5002392;28;20485;-68
2023/09/07 11:06:32;;;;;;;6.13;4.60;;;;;;;;;;4998588;28;20464;-65
2023/09/07 11:09:04;;;;;;;8.30;4.70;;;;;;;;;;5006748;28;20439;-65
2023/09/07 11:11:33;;;;;;;5.90;4.70;;;;;;;;;;4999477;28;20414;-64
2023/09/07 11:14:01;;;;;;;5.57;4.55;;;;;;;;;;4996115;28;20499;-66
2023/09/07 11:16:28;;;;;;;6.53;4.40;;;;;;;;;;4997211;28;20422;-65
2023/09/07 11:18:55;;;;;;;5.73;4.43;;;;;;;;;;5002636;28;20417;-64
2023/09/07 11:21:22;;;;;;;9.48;4.47;;;;;;;;;;4996790;28;20430;-64
2023/09/07 11:23:49;;;;;;;5.60;4.32;;;;;;;;;;4996003;28;20409;-63
2023/09/07 11:26:17;;;;;;;5.78;4.10;;;;;;;;;;4996666;28;20464;-65
2023/09/07 11:28:47;;;;;;;6.67;4.50;;;;;;;;;;4999414;28;20523;-65
2023/09/07 11:31:14;;;;;;;6.53;4.15;;;;;;;;;;5001353;28;20426;-65
2023/09/07 11:33:42;;;;;;;5.78;4.00;;;;;;;;;;5015165;28;20423;-66
2023/09/07 11:36:11;;;;;;;5.40;4.40;;;;;;;;;;5003230;28;20412;-66
2023/09/07 11:38:38;;;;;;;4.75;4.20;;;;;;;;;;5014377;28;20410;-66
2023/09/07 11:41:05;;;;;;;5.88;4.18;;;;;;;;;;5003256;28;20811;-66
2023/09/07 11:43:34;;;;;;;5.78;4.07;;;;;;;;;;5012104;28;20538;-65
2023/09/07 11:46:03;;;;;;;6.72;3.88;;;;;;;;;;4999283;28;20504;-66
2023/09/07 11:48:32;;;;;;;6.93;4.38;;;;;;;;;;5014595;28;20430;-65
2023/09/07 11:50:59;;;;;;;5.97;4.20;;;;;;;;;;5005770;28;20420;-66
2023/09/07 11:53:26;;;;;;;6.15;4.43;;;;;;;;;;5013647;28;20449;-66
2023/09/07 11:55:53;;;;;;;5.15;4.13;;;;;;;;;;5004648;28;20426;-65
2023/09/07 11:58:20;;;;;;;5.55;4.20;;;;;;;;;;5000163;28;20410;-66
2023/09/07 12:00:49;;;;;;;5.45;4.30;;;;;;;;;;5010770;28;21144;-66
2023/09/07 12:03:16;;;;;;;5.70;4.38;;;;;;;;;;5011254;28;20416;-66
2023/09/07 12:05:44;;;;;;;5.82;4.25;;;;;;;;;;5010121;28;20521;-66
2023/09/07 12:08:11;;;;;;;4.40;4.00;;;;;;;;;;5013585;28;20425;-66
2023/09/07 12:10:38;;;;;;;5.65;4.18;;;;;;;;;;5008436;28;20414;-66
2023/09/07 12:13:05;;;;;;;6.18;4.53;;;;;;;;;;5015069;28;20423;-66
2023/09/07 12:15:32;;;;;;;4.90;4.40;;;;;;;;;;5006395;28;20452;-65
2023/09/07 12:18:00;;;;;;;7.28;4.35;;;;;;;;;;5014577;28;20416;-65
2023/09/07 12:20:27;;;;;;;4.80;4.07;;;;;;;;;;5004661;28;20414;-66
2023/09/07 12:22:55;;;;;;;4.70;4.30;;;;;;;;;;5014575;28;20536;-65
2023/09/07 12:25:22;;;;;;;5.63;4.32;;;;;;;;;;5009214;28;20898;-66
2023/09/07 12:27:50;;;;;;;5.80;4.10;;;;;;;;;;5006840;28;20411;-65
2023/09/07 12:30:18;;;;;;;5.47;4.27;;;;;;;;;;5009421;28;20477;-66
2023/09/07 12:32:45;;;;;;;8.18;4.78;;;;;;;;;;5013543;28;20506;-66
2023/09/07 12:35:14;;;;;;;5.57;4.28;;;;;;;;;;5009058;28;20420;-65
2023/09/07 12:37:42;;;;;;;9.90;4.82;;;;;;;;;;5012063;28;20422;-66
2023/09/07 12:40:12;;;;;;;6.70;4.40;;;;;;;;;;5009300;28;20413;-65
2023/09/07 12:42:40;;;;;;;5.10;4.60;;;;;;;;;;5011414;28;20414;-66
2023/09/07 12:45:08;;;;;;;7.22;4.55;;;;;;;;;;5008586;28;20416;-65
2023/09/07 12:47:35;;;;;;;6.70;4.80;;;;;;;;;;5008918;28;20947;-65
2023/09/07 12:50:02;;;;;;;5.97;4.40;;;;;;;;;;5007104;28;20488;-65
2023/09/07 12:52:30;;;;;;;8.43;4.88;;;;;;;;;;5006521;28;20796;-65
2023/09/07 12:54:57;;;;;;;6.75;4.63;;;;;;;;;;5011111;28;20416;-65
2023/09/07 12:57:24;;;;;;;7.30;4.68;;;;;;;;;;5002054;28;20477;-64
2023/09/07 12:59:51;;;;;;;4.88;4.35;;;;;;;;;;5013306;28;20411;-66
2023/09/07 13:02:18;;;;;;;4.95;4.22;;;;;;;;;;5007304;28;20422;-67
2023/09/07 13:04:45;;;;;;;5.47;4.43;;;;;;;;;;5010072;28;20959;-65
2023/09/07 13:07:12;;;;;;;5.85;4.30;;;;;;;;;;5007326;28;20428;-65
2023/09/07 13:09:41;;;;;;;7.05;4.70;;;;;;;;;;5009504;28;20438;-65
2023/09/07 13:12:08;;;;;;;5.68;5.15;;;;;;;;;;5011368;28;20491;-64
2023/09/07 13:14:35;;;;;;;7.80;4.70;;;;;;;;;;5002662;28;20451;-65
2023/09/07 13:17:02;;;;;;;9.07;4.75;;;;;;;;;;5003352;28;20928;-66
2023/09/07 13:19:29;;;;;;;6.55;4.43;;;;;;;;;;5006467;28;20461;-64
2023/09/07 13:21:56;;;;;;;8.20;4.63;;;;;;;;;;5005830;28;20505;-63
2023/09/07 13:24:23;;;;;;;6.50;4.50;;;;;;;;;;5014659;28;20416;-67
2023/09/07 13:26:52;;;;;;;7.25;4.70;;;;;;;;;;5004772;28;20451;-67
2023/09/07 13:29:19;;;;;;;11.88;4.80;;;;;;;;;;5006172;28;20437;-65
2023/09/07 13:31:46;;;;;;;7.72;4.28;;;;;;;;;;5007661;28;20424;-64
2023/09/07 13:34:13;;;;;;;7.38;4.50;;;;;;;;;;5010825;28;20412;-65
2023/09/07 13:36:40;;;;;;;6.30;4.70;;;;;;;;;;5005637;28;20477;-67
2023/09/07 13:39:07;;;;;;;4.95;4.32;;;;;;;;;;5011053;28;20938;-63
2023/09/07 13:41:35;;;;;;;5.63;4.20;;;;;;;;;;5005245;28;20480;-66
2023/09/07 13:44:03;;;;;;;6.97;4.80;;;;;;;;;;5011570;28;20930;-66
2023/09/07 13:46:30;;;;;;;6.30;4.65;;;;;;;;;;5005067;28;20469;-68
2023/09/07 13:48:57;;;;;;;8.55;4.68;;;;;;;;;;5010870;28;20744;-66
2023/09/07 13:51:25;;;;;;;7.82;4.55;;;;;;;;;;5006320;28;20468;-67
2023/09/07 13:53:52;;;;;;;6.18;4.50;;;;;;;;;;5017042;28;20490;-67
2023/09/07 13:56:19;;;;;;;7.95;4.40;;;;;;;;;;5007226;28;20414;-67
2023/09/07 13:58:46;;;;;;;7.10;4.90;;;;;;;;;;5015706;28;20423;-67
2023/09/07 14:01:15;;;;;;;5.87;4.87;;;;;;;;;;5007832;28;20509;-67
2023/09/07 14:03:42;;;;;;;11.98;5.00;;;;;;;;;;5013208;28;20425;-65
2023/09/07 14:06:09;;;;;;;8.88;4.60;;;;;;;;;;4997750;28;20451;-65
2023/09/07 14:08:36;;;;;;;5.65;4.50;;;;;;;;;;5013993;28;20847;-66
2023/09/07 14:11:03;;;;;;;5.75;4.60;;;;;;;;;;5003103;28;20427;-67
2023/09/07 14:13:30;;;;;;;8.45;4.50;;;;;;;;;;5010523;28;20426;-67
2023/09/07 14:15:57;;;;;;;9.55;4.82;;;;;;;;;;5002941;28;20472;-65
2023/09/07 14:18:25;;;;;;;5.22;4.55;;;;;;;;;;5007084;28;20783;-66
2023/09/07 14:20:52;;;;;;;6.50;4.90;;;;;;;;;;5006523;28;20426;-68
2023/09/07 14:23:20;;;;;;;5.95;4.85;;;;;;;;;;5006520;28;20475;-66
2023/09/07 14:25:47;;;;;;;6.20;4.47;;;;;;;;;;5001820;28;20451;-66
2023/09/07 14:28:15;;;;;;;5.05;4.55;;;;;;;;;;5001495;28;20896;-65
2023/09/07 14:30:42;;;;;;;7.80;4.50;;;;;;;;;;5014205;28;20446;-66
2023/09/07 14:33:09;;;;;;;5.97;4.97;;;;;;;;;;5010019;28;20416;-66
2023/09/07 14:35:37;;;;;;;7.47;4.90;;;;;;;;;;5013893;28;20473;-65
2023/09/07 14:38:05;;;;;;;8.70;4.60;;;;;;;;;;5009183;28;20469;-65
2023/09/07 14:40:32;;;;;;;6.10;4.50;;;;;;;;;;5013560;28;20881;-66
2023/09/07 14:42:59;;;;;;;5.77;4.47;;;;;;;;;;5007222;28;20420;-65
2023/09/07 14:45:26;;;;;;;5.10;4.60;;;;;;;;;;5009292;28;20421;-67